Time;durP1;ratioP1;P1;durP2;ratioP2;P2;SDS_P1;SDS_P2;PMS_P1;PMS_P2;Temp;Humidity;BMP_temperature;BMP_pressure;BME280_temperature;BME280_humidity;BME280_pressure;Samples;Min_cycle;Max_cycle;Signal;HPM_P1;HPM_P2
2023/11/19 00:01:56;;;;;;;1.98;0.47;;;5.20;99.90;;;;;;5020412;28;20026;-79
2023/11/19 00:04:22;;;;;;;1.55;0.70;;;5.20;99.90;;;;;;5014898;28;20407;-80
2023/11/19 00:06:48;;;;;;;0.65;0.50;;;5.30;99.90;;;;;;5013569;28;20019;-79
2023/11/19 00:09:13;;;;;;;0.90;0.55;;;5.30;99.90;;;;;;5012857;28;20489;-80
2023/11/19 00:11:38;;;;;;;0.75;0.57;;;5.30;99.90;;;;;;5012551;28;20033;-79
2023/11/19 00:14:08;;;;;;;0.50;0.50;;;5.30;99.90;;;;;;5011659;28;20386;-80
2023/11/19 00:16:34;;;;;;;0.60;0.60;;;5.30;99.90;;;;;;5015977;28;20033;-80
2023/11/19 00:19:00;;;;;;;0.52;0.50;;;5.30;99.90;;;;;;5016561;28;20038;-79
2023/11/19 00:21:28;;;;;;;0.50;0.40;;;5.40;99.90;;;;;;5026111;28;20037;-79
2023/11/19 00:23:53;;;;;;;0.73;0.70;;;5.30;99.90;;;;;;5016357;28;20030;-79
2023/11/19 00:26:19;;;;;;;0.93;0.60;;;5.30;99.90;;;;;;5016418;28;20481;-79
2023/11/19 00:28:47;;;;;;;0.70;0.50;;;5.30;99.90;;;;;;5020281;28;20034;-79
2023/11/19 00:31:13;;;;;;;1.65;0.60;;;5.40;99.90;;;;;;5021248;28;20045;-80
2023/11/19 00:33:39;;;;;;;0.80;0.52;;;5.40;99.90;;;;;;5016063;28;20029;-79
2023/11/19 00:36:05;;;;;;;1.05;0.75;;;5.40;99.90;;;;;;5025439;28;20056;-79
2023/11/19 00:38:31;;;;;;;0.75;0.50;;;5.40;99.90;;;;;;5024238;28;20034;-79
2023/11/19 00:40:56;;;;;;;1.23;0.55;;;5.40;99.90;;;;;;5004845;28;20034;-80
2023/11/19 00:43:22;;;;;;;0.75;0.60;;;5.50;99.90;;;;;;5019510;28;20033;-81
2023/11/19 00:45:50;;;;;;;0.50;0.50;;;5.50;99.90;;;;;;5013036;28;20037;-81
2023/11/19 00:48:15;;;;;;;0.47;0.47;;;5.40;99.90;;;;;;5017001;28;20037;-80
2023/11/19 00:50:44;;;;;;;1.52;0.50;;;5.50;99.90;;;;;;5012212;28;20038;-81
2023/11/19 00:53:09;;;;;;;0.68;0.68;;;5.40;99.90;;;;;;5015074;28;20038;-80
2023/11/19 00:55:35;;;;;;;0.52;0.40;;;5.60;99.90;;;;;;5012193;28;20037;-79
2023/11/19 00:58:00;;;;;;;0.50;0.50;;;5.50;99.90;;;;;;5019897;28;20034;-81
2023/11/19 01:00:27;;;;;;;0.50;0.50;;;5.50;99.90;;;;;;5018385;28;20041;-80
2023/11/19 01:02:53;;;;;;;0.52;0.40;;;5.60;99.90;;;;;;5020409;28;20057;-80
2023/11/19 01:05:22;;;;;;;0.63;0.22;;;5.60;99.90;;;;;;5022071;28;20501;-80
2023/11/19 01:07:48;;;;;;;0.38;0.38;;;5.60;99.90;;;;;;5018176;28;20084;-80
2023/11/19 01:10:13;;;;;;;0.30;0.30;;;5.60;99.90;;;;;;5013669;28;20470;-80
2023/11/19 01:12:39;;;;;;;0.52;0.40;;;5.60;99.90;;;;;;5016044;28;20036;-80
2023/11/19 01:15:06;;;;;;;0.40;0.40;;;5.60;99.90;;;;;;5013269;28;20389;-80
2023/11/19 01:17:31;;;;;;;0.50;0.32;;;5.60;99.90;;;;;;5011275;28;20852;-80
2023/11/19 01:19:57;;;;;;;0.60;0.40;;;5.60;99.90;;;;;;5013495;28;20026;-80
2023/11/19 01:22:23;;;;;;;0.70;0.52;;;5.60;99.90;;;;;;5013762;28;20490;-79
2023/11/19 01:24:48;;;;;;;3.22;0.70;;;5.70;99.90;;;;;;5010946;28;20036;-80
2023/11/19 01:27:14;;;;;;;0.40;0.40;;;5.70;99.90;;;;;;5011077;28;20100;-79
2023/11/19 01:29:39;;;;;;;0.68;0.47;;;5.70;99.90;;;;;;5010496;28;20103;-80
2023/11/19 01:32:05;;;;;;;0.73;0.52;;;5.80;99.90;;;;;;5006566;28;20038;-80
2023/11/19 01:34:31;;;;;;;0.55;0.40;;;5.80;99.90;;;;;;5011221;28;20068;-79
2023/11/19 01:36:56;;;;;;;0.63;0.50;;;5.80;99.90;;;;;;5014146;28;20043;-79
2023/11/19 01:39:22;;;;;;;0.50;0.40;;;5.80;99.90;;;;;;5008672;28;20030;-80
2023/11/19 01:41:47;;;;;;;0.88;0.57;;;5.80;99.90;;;;;;5010632;28;20088;-80
2023/11/19 01:44:13;;;;;;;0.70;0.45;;;5.80;99.90;;;;;;5009926;28;20438;-79
2023/11/19 01:46:42;;;;;;;0.63;0.40;;;5.90;99.90;;;;;;4999627;28;20049;-80
2023/11/19 01:49:08;;;;;;;2.00;0.52;;;5.90;99.90;;;;;;5009615;28;20049;-80
2023/11/19 01:51:34;;;;;;;0.60;0.50;;;6.00;99.90;;;;;;5010991;28;20029;-80
2023/11/19 01:54:00;;;;;;;0.30;0.30;;;6.00;99.90;;;;;;5010964;28;20030;-80
2023/11/19 01:56:26;;;;;;;0.88;0.50;;;6.00;99.90;;;;;;5010706;28;20506;-79
2023/11/19 01:58:54;;;;;;;0.55;0.40;;;6.00;99.90;;;;;;5009850;28;20129;-80
2023/11/19 02:01:20;;;;;;;0.68;0.50;;;6.00;99.90;;;;;;5010699;28;20025;-80
2023/11/19 02:03:46;;;;;;;0.95;0.70;;;6.10;99.90;;;;;;5011883;28;20036;-79
2023/11/19 02:06:13;;;;;;;2.10;0.68;;;6.10;99.90;;;;;;5010664;28;20109;-80
2023/11/19 02:08:39;;;;;;;0.85;0.65;;;6.10;99.90;;;;;;5012856;28;20435;-80
2023/11/19 02:11:06;;;;;;;0.60;0.60;;;6.10;99.90;;;;;;5010793;28;20040;-79
2023/11/19 02:13:32;;;;;;;0.70;0.50;;;6.10;99.90;;;;;;5012118;28;20042;-81
2023/11/19 02:15:59;;;;;;;0.73;0.70;;;6.20;99.90;;;;;;5005545;28;20101;-79
2023/11/19 02:18:29;;;;;;;0.77;0.50;;;6.20;99.90;;;;;;5010682;28;20030;-80
2023/11/19 02:20:56;;;;;;;1.15;0.80;;;6.20;99.90;;;;;;5012486;28;20474;-80
2023/11/19 02:23:22;;;;;;;0.95;0.80;;;6.30;99.90;;;;;;5007824;28;20030;-80
2023/11/19 02:25:57;;;;;;;1.27;0.82;;;6.30;99.90;;;;;;5007432;28;20054;-80
2023/11/19 02:28:23;;;;;;;0.47;0.40;;;6.40;99.90;;;;;;5011885;28;20117;-80
2023/11/19 02:30:48;;;;;;;0.80;0.68;;;6.50;99.90;;;;;;5005498;28;20113;-82
2023/11/19 02:33:15;;;;;;;1.08;0.77;;;6.50;99.90;;;;;;5006149;28;20109;-80
2023/11/19 02:35:40;;;;;;;0.88;0.65;;;6.50;99.90;;;;;;5013888;28;20018;-80
2023/11/19 02:38:07;;;;;;;0.85;0.60;;;6.60;99.90;;;;;;5012143;28;20053;-79
2023/11/19 02:40:32;;;;;;;1.10;0.73;;;6.60;99.90;;;;;;5008236;28;20030;-80
2023/11/19 02:42:58;;;;;;;1.30;0.80;;;6.70;99.90;;;;;;5011119;28;20044;-81
2023/11/19 02:45:24;;;;;;;1.05;0.73;;;6.70;99.90;;;;;;5007540;28;20033;-81
2023/11/19 02:47:51;;;;;;;0.93;0.70;;;6.80;99.90;;;;;;5009238;28;20030;-80
2023/11/19 02:50:17;;;;;;;1.10;0.90;;;6.80;99.90;;;;;;5007543;28;20037;-80
2023/11/19 02:52:45;;;;;;;0.90;0.65;;;6.80;99.90;;;;;;5007630;28;20033;-80
2023/11/19 02:55:12;;;;;;;0.98;0.80;;;6.90;99.90;;;;;;5003865;28;20033;-80
2023/11/19 02:57:50;;;;;;;1.30;0.77;;;6.90;99.90;;;;;;5005371;28;20025;-81
2023/11/19 03:00:17;;;;;;;1.48;0.88;;;6.90;99.90;;;;;;5006012;28;20041;-79
2023/11/19 03:02:46;;;;;;;2.47;0.95;;;6.90;99.90;;;;;;5011360;28;20022;-79
2023/11/19 03:05:14;;;;;;;1.65;0.93;;;7.00;99.90;;;;;;5003274;28;20599;-80
2023/11/19 03:07:43;;;;;;;1.55;0.80;;;7.10;99.90;;;;;;5008730;28;20026;-80
2023/11/19 03:10:15;;;;;;;0.70;0.57;;;7.00;99.90;;;;;;5008581;28;20038;-80
2023/11/19 03:12:42;;;;;;;1.58;0.80;;;7.10;99.90;;;;;;5004614;28;20065;-80
2023/11/19 03:15:09;;;;;;;1.20;0.77;;;7.20;99.90;;;;;;5006701;28;20030;-80
2023/11/19 03:17:37;;;;;;;2.22;0.93;;;7.20;99.90;;;;;;5011124;28;20026;-80
2023/11/19 03:20:06;;;;;;;1.60;0.90;;;7.30;99.90;;;;;;5011305;28;20029;-80
2023/11/19 03:22:33;;;;;;;2.03;1.20;;;7.30;99.90;;;;;;5012090;28;20536;-81
2023/11/19 03:24:59;;;;;;;2.90;1.30;;;7.50;99.90;;;;;;5009303;28;20030;-80
2023/11/19 03:27:24;;;;;;;2.90;1.55;;;7.50;99.90;;;;;;5005662;28;20061;-81
2023/11/19 03:29:50;;;;;;;3.38;1.70;;;7.50;99.90;;;;;;5012296;28;20042;-81
2023/11/19 03:32:15;;;;;;;4.00;1.75;;;7.60;99.90;;;;;;5011307;28;20025;-81
2023/11/19 03:34:41;;;;;;;3.33;1.80;;;7.60;99.90;;;;;;5011682;28;20045;-80
2023/11/19 03:37:07;;;;;;;3.78;1.58;;;7.70;99.90;;;;;;5012862;28;20034;-81
2023/11/19 03:39:32;;;;;;;3.65;1.92;;;7.70;99.90;;;;;;5010165;28;20034;-81
2023/11/19 03:41:58;;;;;;;2.92;1.60;;;7.80;99.90;;;;;;5005193;28;20371;-80
2023/11/19 03:44:26;;;;;;;4.25;1.98;;;7.80;99.90;;;;;;5010893;28;20069;-81
2023/11/19 03:46:51;;;;;;;3.85;2.10;;;7.80;99.90;;;;;;5024095;28;20029;-81
2023/11/19 03:49:17;;;;;;;4.45;2.15;;;8.00;99.90;;;;;;5011793;28;20041;-81
2023/11/19 03:51:42;;;;;;;4.80;2.42;;;7.90;99.90;;;;;;5010143;28;20173;-81
2023/11/19 03:54:08;;;;;;;5.38;2.35;;;8.00;99.90;;;;;;5009200;28;20038;-81
2023/11/19 03:56:33;;;;;;;5.47;2.80;;;8.00;99.90;;;;;;5009209;28;20489;-81
2023/11/19 03:58:59;;;;;;;5.95;2.65;;;8.10;99.90;;;;;;5005352;28;20029;-81
2023/11/19 04:01:24;;;;;;;6.63;3.22;;;8.10;99.90;;;;;;5014314;28;20061;-82
2023/11/19 04:03:50;;;;;;;5.60;2.72;;;8.10;99.90;;;;;;5010089;28;20386;-81
2023/11/19 04:06:15;;;;;;;7.47;3.70;;;8.20;99.90;;;;;;5013392;28;20053;-81
2023/11/19 04:08:41;;;;;;;5.10;2.63;;;8.30;99.90;;;;;;5012358;28;20034;-80
2023/11/19 04:11:08;;;;;;;6.30;3.05;;;8.30;99.90;;;;;;5009080;28;20034;-80
2023/11/19 04:13:34;;;;;;;5.88;3.08;;;8.40;99.90;;;;;;5007835;28;20052;-81
2023/11/19 04:16:00;;;;;;;7.43;3.20;;;8.40;99.90;;;;;;5007938;28;20034;-81
2023/11/19 04:18:25;;;;;;;7.03;3.60;;;8.60;99.90;;;;;;5009969;28;20042;-81
2023/11/19 04:20:51;;;;;;;6.22;3.28;;;8.60;99.90;;;;;;5005624;28;20048;-81
2023/11/19 04:23:16;;;;;;;7.85;4.00;;;8.70;99.90;;;;;;5009673;28;20030;-82
2023/11/19 04:25:42;;;;;;;8.30;4.40;;;8.80;99.90;;;;;;5006499;28;20040;-81
2023/11/19 04:28:08;;;;;;;8.23;4.10;;;8.80;99.90;;;;;;5010533;28;20049;-82
2023/11/19 04:30:33;;;;;;;7.70;3.90;;;8.90;99.90;;;;;;5006041;28;20054;-81
2023/11/19 04:32:59;;;;;;;8.30;4.53;;;9.00;99.90;;;;;;5009658;28;20026;-82
2023/11/19 04:35:26;;;;;;;7.75;4.05;;;9.10;99.90;;;;;;5010261;28;20045;-81
2023/11/19 04:37:51;;;;;;;7.65;3.92;;;9.10;99.90;;;;;;5008315;28;20033;-81
2023/11/19 04:40:18;;;;;;;6.65;3.95;;;9.20;99.90;;;;;;5003581;28;20030;-81
2023/11/19 04:42:43;;;;;;;7.53;4.45;;;9.20;99.90;;;;;;5009813;28;20108;-81
2023/11/19 04:45:10;;;;;;;7.60;4.15;;;9.30;99.90;;;;;;5013234;28;20159;-81
2023/11/19 04:47:38;;;;;;;10.88;5.18;;;9.40;99.90;;;;;;5010107;28;20348;-81
2023/11/19 04:50:04;;;;;;;7.72;4.10;;;9.40;99.90;;;;;;5013400;28;20076;-81
2023/11/19 04:52:30;;;;;;;8.48;4.32;;;9.50;99.90;;;;;;5010023;28;20030;-81
2023/11/19 04:54:55;;;;;;;8.52;4.07;;;9.60;99.90;;;;;;5015148;28;20037;-81
2023/11/19 04:57:21;;;;;;;7.80;3.90;;;9.60;99.90;;;;;;5004452;28;20038;-80
2023/11/19 04:59:46;;;;;;;9.35;4.25;;;9.60;99.90;;;;;;5009318;28;20414;-82
2023/11/19 05:02:12;;;;;;;8.93;4.97;;;9.70;99.90;;;;;;5011210;28;20029;-82
2023/11/19 05:04:44;;;;;;;6.03;3.30;;;9.80;99.90;;;;;;5015830;28;20030;-81
2023/11/19 05:07:09;;;;;;;8.50;3.70;;;9.90;99.90;;;;;;5012339;28;20038;-81
2023/11/19 05:09:35;;;;;;;8.02;4.47;;;10.10;99.90;;;;;;5013798;28;20038;-81
2023/11/19 05:12:01;;;;;;;7.80;4.07;;;10.20;99.90;;;;;;5010277;28;20046;-81
2023/11/19 05:14:27;;;;;;;8.80;4.05;;;10.20;99.90;;;;;;5008009;28;20122;-82
2023/11/19 05:16:53;;;;;;;7.50;3.95;;;10.20;99.90;;;;;;5015654;28;20395;-81
2023/11/19 05:19:18;;;;;;;9.32;4.20;;;10.30;99.90;;;;;;5009276;28;20516;-81
2023/11/19 05:21:44;;;;;;;8.55;5.07;;;10.40;99.90;;;;;;5012041;28;20025;-81
2023/11/19 05:24:10;;;;;;;7.03;3.90;;;10.50;99.90;;;;;;5012351;28;20057;-81
2023/11/19 05:26:35;;;;;;;10.88;4.68;;;10.40;99.90;;;;;;5003805;28;20509;-78
2023/11/19 05:29:01;;;;;;;9.20;4.43;;;10.50;99.90;;;;;;5011678;28;20430;-77
2023/11/19 05:31:27;;;;;;;8.88;4.60;;;10.50;99.90;;;;;;5008964;28;20061;-77
2023/11/19 05:33:53;;;;;;;7.38;4.32;;;10.50;99.90;;;;;;5012606;28;20030;-78
2023/11/19 05:36:18;;;;;;;8.00;4.03;;;10.50;99.90;;;;;;5005322;28;20510;-78
2023/11/19 05:38:44;;;;;;;8.55;4.47;;;10.60;99.90;;;;;;5012507;28;20050;-76
2023/11/19 05:41:10;;;;;;;7.07;4.15;;;10.70;99.90;;;;;;5003896;28;20034;-76
2023/11/19 05:43:35;;;;;;;10.43;4.63;;;10.70;99.90;;;;;;5010434;28;20034;-77
2023/11/19 05:46:01;;;;;;;7.20;4.45;;;10.70;99.90;;;;;;5012224;28;20121;-77
2023/11/19 05:48:27;;;;;;;8.18;4.60;;;10.70;99.90;;;;;;5005349;28;20064;-77
2023/11/19 05:50:53;;;;;;;9.60;4.28;;;10.70;99.90;;;;;;5007842;28;20157;-77
2023/11/19 05:53:19;;;;;;;8.32;4.57;;;10.70;99.90;;;;;;5008994;28;20030;-77
2023/11/19 05:55:48;;;;;;;11.13;4.85;;;10.80;99.90;;;;;;5006144;28;20208;-77
2023/11/19 05:58:14;;;;;;;8.10;4.82;;;10.70;99.90;;;;;;5008772;28;20032;-77
2023/11/19 06:00:43;;;;;;;7.90;4.55;;;10.70;99.90;;;;;;5010752;28;20030;-77
2023/11/19 06:03:08;;;;;;;8.90;4.65;;;10.70;99.90;;;;;;5003311;28;20030;-77
2023/11/19 06:05:34;;;;;;;7.95;4.38;;;10.70;99.90;;;;;;5007013;28;20120;-77
2023/11/19 06:07:59;;;;;;;8.57;4.72;;;10.70;99.90;;;;;;5013855;28;20030;-77
2023/11/19 06:10:30;;;;;;;7.72;4.22;;;10.70;99.90;;;;;;5009240;28;20080;-77
2023/11/19 06:12:59;;;;;;;7.75;3.65;;;10.70;99.90;;;;;;5005171;28;20148;-77
2023/11/19 06:15:27;;;;;;;8.63;4.90;;;10.70;99.90;;;;;;5006606;28;20471;-77
2023/11/19 06:17:52;;;;;;;7.57;4.00;;;10.70;99.90;;;;;;5006249;28;20113;-77
2023/11/19 06:20:19;;;;;;;8.32;4.20;;;10.70;99.90;;;;;;5007113;28;20542;-77
2023/11/19 06:22:45;;;;;;;8.45;4.05;;;10.80;99.90;;;;;;5006446;28;20018;-77
2023/11/19 06:25:11;;;;;;;11.15;4.45;;;10.70;99.90;;;;;;5009059;28;20386;-77
2023/11/19 06:27:36;;;;;;;7.38;4.20;;;10.70;99.90;;;;;;5008403;28;20498;-77
2023/11/19 06:30:02;;;;;;;11.65;4.40;;;10.70;99.90;;;;;;5007290;28;20033;-77
2023/11/19 06:32:28;;;;;;;7.22;3.70;;;10.80;99.90;;;;;;5004378;28;20125;-77
2023/11/19 06:34:54;;;;;;;8.93;4.13;;;10.80;99.90;;;;;;5000560;28;20036;-78
2023/11/19 06:37:20;;;;;;;7.18;3.90;;;10.80;99.90;;;;;;5009072;28;20467;-78
2023/11/19 06:39:45;;;;;;;9.32;3.78;;;10.80;99.90;;;;;;5003036;28;20515;-77
2023/11/19 06:42:11;;;;;;;8.02;4.57;;;10.80;99.90;;;;;;5009115;28;20104;-77
2023/11/19 06:44:36;;;;;;;7.93;3.40;;;10.80;99.90;;;;;;5006702;28;20033;-77
2023/11/19 06:47:02;;;;;;;7.35;3.95;;;10.80;99.90;;;;;;5007459;28;20025;-77
2023/11/19 06:49:27;;;;;;;8.05;4.05;;;10.80;99.90;;;;;;5004081;28;20077;-77
2023/11/19 06:51:53;;;;;;;5.72;3.35;;;10.80;99.90;;;;;;5007168;28;20129;-77
2023/11/19 06:54:18;;;;;;;7.68;3.35;;;10.90;99.90;;;;;;5006607;28;20030;-77
2023/11/19 06:56:44;;;;;;;5.78;3.08;;;10.90;99.90;;;;;;5008022;28;20041;-77
2023/11/19 06:59:09;;;;;;;6.13;3.00;;;10.80;99.90;;;;;;5004469;28;20048;-77
2023/11/19 07:01:36;;;;;;;7.53;3.47;;;10.90;99.90;;;;;;5004446;28;20480;-77
2023/11/19 07:04:07;;;;;;;5.78;2.75;;;10.90;99.90;;;;;;5006572;28;20030;-77
2023/11/19 07:06:34;;;;;;;5.10;2.97;;;10.90;99.90;;;;;;5003968;28;20026;-77
2023/11/19 07:09:02;;;;;;;3.83;2.72;;;11.00;99.90;;;;;;5009432;28;20037;-77
2023/11/19 07:11:27;;;;;;;5.13;2.88;;;11.00;99.90;;;;;;5008489;28;20042;-77
2023/11/19 07:13:54;;;;;;;4.85;2.88;;;11.00;99.90;;;;;;5003775;28;20072;-77
2023/11/19 07:16:21;;;;;;;6.05;3.45;;;11.00;99.90;;;;;;5007989;28;20030;-77
2023/11/19 07:18:50;;;;;;;7.18;3.40;;;11.00;99.90;;;;;;5010163;28;20073;-77
2023/11/19 07:21:15;;;;;;;6.97;3.40;;;11.10;99.90;;;;;;5008379;28;20026;-77
2023/11/19 07:23:41;;;;;;;6.15;2.83;;;11.10;99.90;;;;;;5006889;28;20498;-77
2023/11/19 07:26:10;;;;;;;5.10;2.60;;;11.00;99.90;;;;;;5008757;28;20140;-78
2023/11/19 07:28:36;;;;;;;4.13;2.38;;;11.10;99.90;;;;;;5010445;28;20083;-76
2023/11/19 07:31:01;;;;;;;3.45;1.90;;;11.10;99.90;;;;;;5009086;28;20065;-76
2023/11/19 07:33:27;;;;;;;6.43;2.08;;;11.10;99.90;;;;;;5006536;28;20488;-77
2023/11/19 07:35:52;;;;;;;2.53;2.00;;;11.20;99.90;;;;;;5008965;28;20026;-77
2023/11/19 07:38:18;;;;;;;4.32;1.70;;;11.20;99.60;;;;;;5010746;28;20037;-77
2023/11/19 07:40:43;;;;;;;6.30;2.40;;;11.20;99.60;;;;;;5006045;28;20044;-77
2023/11/19 07:43:09;;;;;;;3.35;1.80;;;11.20;99.60;;;;;;5006017;28;20026;-77
2023/11/19 07:45:34;;;;;;;4.88;1.90;;;11.20;99.50;;;;;;5002980;28;20048;-78
2023/11/19 07:48:01;;;;;;;1.77;1.15;;;11.30;99.40;;;;;;5007162;28;20038;-79
2023/11/19 07:50:26;;;;;;;4.80;1.85;;;11.30;99.30;;;;;;5007220;28;20387;-76
2023/11/19 07:52:52;;;;;;;6.60;2.15;;;11.30;99.20;;;;;;5008200;28;20029;-78
2023/11/19 07:55:19;;;;;;;5.00;1.77;;;11.30;99.30;;;;;;5003464;28;20041;-80
2023/11/19 07:57:44;;;;;;;5.15;1.73;;;11.30;99.30;;;;;;5001971;28;20482;-79
2023/11/19 08:00:13;;;;;;;3.33;1.55;;;11.30;99.30;;;;;;5005761;28;20113;-79
2023/11/19 08:02:39;;;;;;;3.92;1.25;;;11.30;99.30;;;;;;5002492;28;20062;-79
2023/11/19 08:05:05;;;;;;;6.65;1.83;;;11.30;99.30;;;;;;4999865;28;20470;-79
2023/11/19 08:07:31;;;;;;;3.95;1.23;;;11.40;99.20;;;;;;5007792;28;20036;-79
2023/11/19 08:09:56;;;;;;;1.95;1.33;;;11.40;99.10;;;;;;4999562;28;20483;-79
2023/11/19 08:12:22;;;;;;;4.80;1.95;;;11.30;99.10;;;;;;5001005;28;20069;-79
2023/11/19 08:14:49;;;;;;;5.32;1.83;;;11.30;99.10;;;;;;5008907;28;20113;-79
2023/11/19 08:17:14;;;;;;;5.35;2.33;;;11.30;99.10;;;;;;5011798;28;20049;-79
2023/11/19 08:19:40;;;;;;;7.65;2.75;;;11.30;99.10;;;;;;5012703;28;20096;-79
2023/11/19 08:22:05;;;;;;;5.40;2.05;;;11.30;99.10;;;;;;5007379;28;20077;-79
2023/11/19 08:24:30;;;;;;;5.47;1.60;;;11.30;99.00;;;;;;5009517;28;20832;-79
2023/11/19 08:26:56;;;;;;;8.80;1.83;;;11.30;98.90;;;;;;5012023;28;20294;-79
2023/11/19 08:29:21;;;;;;;3.05;1.48;;;11.30;98.80;;;;;;5005613;28;20048;-79
2023/11/19 08:31:47;;;;;;;4.25;2.10;;;11.40;98.10;;;;;;5010534;28;20462;-79
2023/11/19 08:34:12;;;;;;;4.35;1.80;;;11.40;97.90;;;;;;5008628;28;20030;-79
2023/11/19 08:36:38;;;;;;;2.70;1.10;;;11.40;97.90;;;;;;5006653;28;20034;-79
2023/11/19 08:39:03;;;;;;;5.28;1.88;;;11.40;97.60;;;;;;5011640;28;20393;-79
2023/11/19 08:41:29;;;;;;;3.05;1.90;;;11.50;97.50;;;;;;5012391;28;20038;-79
2023/11/19 08:43:54;;;;;;;9.25;2.00;;;11.40;97.60;;;;;;5009375;28;20091;-79
2023/11/19 08:46:19;;;;;;;6.05;1.88;;;11.40;97.60;;;;;;5005462;28;20033;-79
2023/11/19 08:48:45;;;;;;;5.50;1.50;;;11.40;97.40;;;;;;5011788;28;20042;-80
2023/11/19 08:51:12;;;;;;;8.48;2.42;;;11.50;97.10;;;;;;5010722;28;20551;-79
2023/11/19 08:53:37;;;;;;;3.72;2.08;;;11.40;97.50;;;;;;5008530;28;20041;-79
2023/11/19 08:56:03;;;;;;;4.45;1.60;;;11.40;97.40;;;;;;5006706;28;20042;-80
2023/11/19 08:58:29;;;;;;;8.10;2.53;;;11.50;97.20;;;;;;5006138;28;20129;-78
2023/11/19 09:00:54;;;;;;;7.30;1.58;;;11.50;97.10;;;;;;5008524;28;20042;-79
2023/11/19 09:03:20;;;;;;;6.47;1.77;;;11.50;97.30;;;;;;5009116;28;20030;-75
2023/11/19 09:05:46;;;;;;;5.28;1.77;;;11.50;97.20;;;;;;5011930;28;20026;-76
2023/11/19 09:08:11;;;;;;;5.85;1.95;;;11.50;97.20;;;;;;5010770;28;20053;-77
2023/11/19 09:10:37;;;;;;;7.30;1.95;;;11.50;97.00;;;;;;5011554;28;20113;-77
2023/11/19 09:13:03;;;;;;;3.40;1.58;;;11.60;96.30;;;;;;5012252;28;20471;-75
2023/11/19 09:15:29;;;;;;;3.67;1.65;;;11.60;96.40;;;;;;5002254;28;20026;-78
2023/11/19 09:17:54;;;;;;;8.88;1.98;;;11.60;96.30;;;;;;5005733;28;20076;-77
2023/11/19 09:20:20;;;;;;;6.00;1.90;;;11.60;96.50;;;;;;5006812;28;20060;-75
2023/11/19 09:22:46;;;;;;;3.47;1.67;;;11.70;96.20;;;;;;5001894;28;20165;-80
2023/11/19 09:25:11;;;;;;;4.47;1.45;;;11.70;95.60;;;;;;5009350;28;20525;-81
2023/11/19 09:27:37;;;;;;;9.50;1.73;;;11.80;95.40;;;;;;5001316;28;20050;-78
2023/11/19 09:30:03;;;;;;;4.80;1.70;;;11.80;95.10;;;;;;5004411;28;20034;-79
2023/11/19 09:32:29;;;;;;;5.45;1.95;;;11.80;95.00;;;;;;5010048;28;20095;-80
2023/11/19 09:34:54;;;;;;;6.82;2.03;;;11.80;94.70;;;;;;5007881;28;20045;-78
2023/11/19 09:37:20;;;;;;;5.82;1.25;;;11.90;94.70;;;;;;5010530;28;20033;-79
2023/11/19 09:39:45;;;;;;;4.97;1.65;;;11.90;94.60;;;;;;5005917;28;20389;-77
2023/11/19 09:42:12;;;;;;;2.63;1.45;;;12.00;94.20;;;;;;5006969;28;20585;-76
2023/11/19 09:44:43;;;;;;;9.40;2.22;;;12.00;94.70;;;;;;5001167;28;20033;-78
2023/11/19 09:47:10;;;;;;;4.70;0.95;;;12.10;94.10;;;;;;5004909;28;20030;-75
2023/11/19 09:49:36;;;;;;;3.97;1.67;;;12.10;94.30;;;;;;5003486;28;20041;-77
2023/11/19 09:52:02;;;;;;;3.08;1.38;;;12.20;93.90;;;;;;4996850;28;20057;-76
2023/11/19 09:54:28;;;;;;;5.15;1.80;;;12.10;93.40;;;;;;4999826;28;20112;-76
2023/11/19 09:56:59;;;;;;;8.23;1.83;;;12.10;93.90;;;;;;5005972;28;20094;-77
2023/11/19 09:59:24;;;;;;;;;;;12.10;93.50;;;;;;5005281;28;20100;-78
2023/11/19 10:01:50;;;;;;;6.35;2.13;;;12.10;93.70;;;;;;5006294;28;19992;-78
2023/11/19 10:04:17;;;;;;;7.88;1.80;;;12.00;94.00;;;;;;5004049;28;20478;-80
2023/11/19 10:06:42;;;;;;;6.95;1.67;;;12.00;93.70;;;;;;5001781;28;20049;-80
2023/11/19 10:09:08;;;;;;;5.63;1.40;;;12.00;93.60;;;;;;5000281;28;20030;-79
2023/11/19 10:11:33;;;;;;;7.93;2.22;;;12.00;94.30;;;;;;5002838;28;20402;-80
2023/11/19 10:13:59;;;;;;;3.80;1.30;;;12.00;93.60;;;;;;5006962;28;20460;-77
2023/11/19 10:16:31;;;;;;;6.30;2.17;;;11.90;93.80;;;;;;5007231;28;20038;-77
2023/11/19 10:18:56;;;;;;;4.30;1.27;;;11.80;94.20;;;;;;5012151;28;20623;-78
2023/11/19 10:21:22;;;;;;;6.85;1.33;;;11.80;93.90;;;;;;5004098;28;20065;-77
2023/11/19 10:23:57;;;;;;;4.22;1.50;;;11.70;94.50;;;;;;5007442;28;20041;-77
2023/11/19 10:26:22;;;;;;;10.10;1.63;;;11.60;95.10;;;;;;5004602;28;20062;-78
2023/11/19 10:28:48;;;;;;;6.32;2.13;;;11.50;95.60;;;;;;5004105;28;20099;-78
2023/11/19 10:31:15;;;;;;;8.70;1.63;;;11.40;96.30;;;;;;5007197;28;20058;-78
2023/11/19 10:33:40;;;;;;;5.53;1.83;;;11.40;96.80;;;;;;5007454;28;20604;-78
2023/11/19 10:36:06;;;;;;;6.13;1.38;;;11.40;96.90;;;;;;5006300;28;20030;-78
2023/11/19 10:38:32;;;;;;;4.32;1.10;;;11.50;96.80;;;;;;5010975;28;20040;-77
2023/11/19 10:40:58;;;;;;;4.25;1.20;;;11.60;96.80;;;;;;5008521;28;20485;-78
2023/11/19 10:43:25;;;;;;;9.20;1.80;;;11.60;96.70;;;;;;5014675;28;20041;-76
2023/11/19 10:45:51;;;;;;;4.68;1.35;;;11.80;96.20;;;;;;5009173;28;20128;-77
2023/11/19 10:48:17;;;;;;;4.93;1.30;;;11.80;96.20;;;;;;5013145;28;20470;-78
2023/11/19 10:50:44;;;;;;;4.85;1.10;;;11.80;95.70;;;;;;5010517;28;20041;-77
2023/11/19 10:53:14;;;;;;;9.52;1.40;;;11.80;95.60;;;;;;5005858;28;20034;-77
2023/11/19 10:55:39;;;;;;;10.45;1.60;;;11.70;95.40;;;;;;5009021;28;20038;-76
2023/11/19 10:58:09;;;;;;;3.47;1.33;;;11.70;95.50;;;;;;5008554;28;20470;-76
2023/11/19 11:00:47;;;;;;;2.85;1.00;;;11.70;95.80;;;;;;5005027;28;20031;-77
2023/11/19 11:03:22;;;;;;;5.32;1.38;;;11.70;95.80;;;;;;4999929;28;20034;-79
2023/11/19 11:05:49;;;;;;;6.55;1.55;;;11.60;96.20;;;;;;5009480;28;20030;-78
2023/11/19 11:08:16;;;;;;;1.80;1.13;;;11.60;95.80;;;;;;5003371;28;20037;-76
2023/11/19 11:11:04;;;;;;;4.90;1.33;;;11.60;95.70;;;;;;5009516;28;20034;-77
2023/11/19 11:13:31;;;;;;;2.28;0.95;;;11.60;95.80;;;;;;5006366;28;20041;-78
2023/11/19 11:15:58;;;;;;;3.65;1.65;;;11.60;95.60;;;;;;5006366;28;20433;-78
2023/11/19 11:18:27;;;;;;;6.20;1.75;;;11.60;95.50;;;;;;5009655;28;20042;-77
2023/11/19 11:21:00;;;;;;;5.20;1.30;;;11.50;96.00;;;;;;5004436;28;20041;-77
2023/11/19 11:24:06;;;;;;;4.40;1.38;;;11.50;96.00;;;;;;4998486;28;20455;-78
2023/11/19 11:26:39;;;;;;;11.60;1.85;;;11.50;95.90;;;;;;5001664;28;20049;-79
2023/11/19 11:29:20;;;;;;;6.60;1.70;;;11.50;96.00;;;;;;5002739;28;20037;-77
2023/11/19 11:32:13;;;;;;;5.22;1.27;;;11.40;96.00;;;;;;4998264;28;20045;-77
2023/11/19 11:34:45;;;;;;;4.25;1.30;;;11.50;96.00;;;;;;5000905;28;20026;-77
2023/11/19 11:37:31;;;;;;;6.20;1.80;;;11.50;96.00;;;;;;5004445;28;20472;-77
2023/11/19 11:40:00;;;;;;;4.32;1.73;;;11.50;95.70;;;;;;5000087;28;20045;-77
2023/11/19 11:42:26;;;;;;;8.75;1.90;;;11.70;95.70;;;;;;5007318;28;20493;-77
2023/11/19 11:45:11;;;;;;;3.88;1.00;;;11.70;95.40;;;;;;5000403;28;20030;-77
2023/11/19 11:47:45;;;;;;;4.72;1.02;;;11.80;95.30;;;;;;5005859;28;20038;-76
2023/11/19 11:50:18;;;;;;;3.83;1.20;;;11.80;94.70;;;;;;5008161;28;20092;-76
2023/11/19 11:52:56;;;;;;;5.78;1.65;;;11.80;95.20;;;;;;4999627;28;20118;-76
2023/11/19 11:55:28;;;;;;;4.93;0.98;;;11.70;95.20;;;;;;5001661;28;20034;-77
2023/11/19 11:57:55;;;;;;;3.55;1.15;;;11.80;95.50;;;;;;5006548;28;20064;-77
2023/11/19 12:00:30;;;;;;;4.63;1.42;;;11.80;95.40;;;;;;4999600;28;20033;-76
2023/11/19 12:02:57;;;;;;;8.23;1.52;;;11.80;95.10;;;;;;5003295;28;20432;-77
2023/11/19 12:05:23;;;;;;;5.50;1.35;;;11.80;94.90;;;;;;5002898;28;20030;-79
2023/11/19 12:07:55;;;;;;;2.60;1.40;;;11.80;94.90;;;;;;4995358;28;20753;-77
2023/11/19 12:10:21;;;;;;;5.55;1.50;;;11.80;95.50;;;;;;4999063;28;20034;-76
2023/11/19 12:12:47;;;;;;;6.30;1.85;;;11.70;96.10;;;;;;5004405;28;20073;-77
2023/11/19 12:15:14;;;;;;;6.25;1.90;;;11.70;96.00;;;;;;5008416;28;20091;-76
2023/11/19 12:17:50;;;;;;;3.80;1.23;;;11.70;96.00;;;;;;5001463;28;20467;-77
2023/11/19 12:20:26;;;;;;;3.67;1.58;;;11.60;96.30;;;;;;5000695;28;20030;-78
2023/11/19 12:22:53;;;;;;;7.93;1.50;;;11.50;96.50;;;;;;5000988;28;20100;-78
2023/11/19 12:25:20;;;;;;;6.45;1.52;;;11.50;95.90;;;;;;4997408;28;20108;-77
2023/11/19 12:27:48;;;;;;;9.82;1.88;;;11.40;96.50;;;;;;5003122;28;20145;-76
2023/11/19 12:30:26;;;;;;;5.47;1.38;;;11.40;96.20;;;;;;4999350;28;20064;-76
2023/11/19 12:32:55;;;;;;;6.97;2.08;;;11.50;96.20;;;;;;5003424;28;20068;-76
2023/11/19 12:35:21;;;;;;;3.35;1.00;;;11.50;95.80;;;;;;5006170;28;20248;-76
2023/11/19 12:37:51;;;;;;;3.05;1.08;;;11.50;96.00;;;;;;5007954;28;20065;-76
2023/11/19 12:40:21;;;;;;;3.10;1.10;;;11.50;96.10;;;;;;5003378;28;20052;-75
2023/11/19 12:42:52;;;;;;;7.50;1.58;;;11.40;96.00;;;;;;5007618;28;20030;-75
2023/11/19 12:45:20;;;;;;;8.30;1.45;;;11.50;95.90;;;;;;5004914;28;20466;-75
2023/11/19 12:47:47;;;;;;;4.20;1.38;;;11.40;96.00;;;;;;5001196;28;20429;-75
2023/11/19 12:50:13;;;;;;;9.18;2.10;;;11.40;95.80;;;;;;5000927;28;20033;-76